createdAt,value
2019-06-27T00:03:36.302Z,75.22
2019-06-27T00:08:31.161Z,75.46
2019-06-27T00:13:25.822Z,75.59
2019-06-27T00:18:20.433Z,76.22
2019-06-27T00:23:15.048Z,76.65
2019-06-27T00:28:09.774Z,77.22
2019-06-27T00:33:04.468Z,77.38
2019-06-27T00:37:59.096Z,78.61
2019-06-27T00:42:53.689Z,79.26
2019-06-27T00:47:48.300Z,79.64
2019-06-27T00:52:43.074Z,79.47
2019-06-27T00:57:37.824Z,79.96
2019-06-27T01:02:32.417Z,80.48
2019-06-27T01:07:27.029Z,81.83
2019-06-27T01:12:21.652Z,82.69
2019-06-27T01:17:16.243Z,83.16
2019-06-27T01:22:10.926Z,83.17
2019-06-27T01:27:05.524Z,82.80
2019-06-27T01:32:00.139Z,82.90
2019-06-27T01:36:54.816Z,82.86
2019-06-27T01:41:49.413Z,83.02
2019-06-27T01:46:44.028Z,82.95
2019-06-27T01:51:38.648Z,82.60
2019-06-27T01:56:33.251Z,83.26
2019-06-27T02:01:27.867Z,83.56
2019-06-27T02:06:22.479Z,84.24
2019-06-27T02:11:17.141Z,84.65
2019-06-27T02:16:11.748Z,84.56
2019-06-27T02:21:06.365Z,84.33
2019-06-27T02:26:00.997Z,84.93
2019-06-27T02:30:55.592Z,85.16
2019-06-27T02:35:50.201Z,85.41
2019-06-27T02:40:44.902Z,84.46
2019-06-27T02:45:39.583Z,84.82
2019-06-27T02:50:34.244Z,84.87
2019-06-27T02:55:29.599Z,84.47
2019-06-27T03:00:24.838Z,84.45
2019-06-27T03:05:20.057Z,85.39
2019-06-27T03:10:16.454Z,85.92
2019-06-27T03:15:13.191Z,86.35
2019-06-27T03:20:11.937Z,86.70
2019-06-27T03:25:07.449Z,86.62
2019-06-27T03:30:02.087Z,86.72
2019-06-27T03:34:56.681Z,87.47
2019-06-27T03:39:51.350Z,86.95
2019-06-27T03:44:45.967Z,86.91
2019-06-27T03:49:40.575Z,86.35
2019-06-27T03:54:35.169Z,85.99
2019-06-27T03:59:29.793Z,85.93
2019-06-27T04:04:24.405Z,84.34
2019-06-27T04:09:19.341Z,82.59
2019-06-27T04:14:13.961Z,79.79
2019-06-27T04:19:09.067Z,76.58
2019-06-27T04:24:03.753Z,73.26
2019-06-27T04:28:58.368Z,69.81
2019-06-27T04:33:52.959Z,66.55
2019-06-27T04:38:47.616Z,63.03
2019-06-27T04:43:42.283Z,59.44
2019-06-27T04:48:36.894Z,56.57
2019-06-27T04:53:31.504Z,54.17
2019-06-27T04:58:26.102Z,52.37
2019-06-27T05:03:20.719Z,50.54
2019-06-27T05:08:15.332Z,48.41
2019-06-27T05:13:09.939Z,48.11
2019-06-27T05:18:04.564Z,46.53
2019-06-27T05:22:59.183Z,46.85
2019-06-27T05:27:54.899Z,46.45
2019-06-27T05:32:49.495Z,46.16
2019-06-27T05:37:44.097Z,45.08
2019-06-27T05:42:38.703Z,42.35
2019-06-27T05:47:33.291Z,44.23
2019-06-27T05:52:27.932Z,43.48
2019-06-27T05:57:22.540Z,42.28
2019-06-27T06:02:17.178Z,41.78
2019-06-27T06:07:11.779Z,42.89
2019-06-27T06:12:06.387Z,44.98
2019-06-27T06:17:01.402Z,44.70
2019-06-27T06:21:56.026Z,44.11
2019-06-27T06:26:53.672Z,44.38
2019-06-27T06:31:51.482Z,44.83
2019-06-27T06:36:49.077Z,46.04
2019-06-27T06:41:43.659Z,44.97
2019-06-27T06:46:38.263Z,44.58
2019-06-27T06:51:33.480Z,45.17
2019-06-27T06:56:29.087Z,44.80
2019-06-27T07:01:24.270Z,45.33
2019-06-27T07:06:19.390Z,44.51
2019-06-27T07:11:13.976Z,44.75
2019-06-27T07:16:08.578Z,46.29
2019-06-27T07:21:03.288Z,47.57
2019-06-27T07:25:57.863Z,46.92
2019-06-27T07:30:52.608Z,47.52
2019-06-27T07:35:47.385Z,46.20
2019-06-27T07:40:42.344Z,46.29
2019-06-27T07:45:43.447Z,46.92
2019-06-27T07:50:38.327Z,46.76
2019-06-27T07:55:33.694Z,46.12
2019-06-27T08:00:28.467Z,47.13
2019-06-27T08:05:23.693Z,46.67
2019-06-27T08:10:18.933Z,45.49
2019-06-27T08:15:14.571Z,45.72
2019-06-27T08:20:09.576Z,43.61
2019-06-27T08:25:07.253Z,46.13
2019-06-27T08:30:02.082Z,43.77
2019-06-27T08:34:57.030Z,44.04
2019-06-27T08:39:51.720Z,43.83
2019-06-27T08:44:46.992Z,43.94
2019-06-27T08:49:41.947Z,42.84
2019-06-27T08:54:40.182Z,43.03
2019-06-27T08:59:34.948Z,43.70
2019-06-27T09:04:30.028Z,44.30
2019-06-27T09:09:24.832Z,43.66
2019-06-27T09:14:21.802Z,44.27
2019-06-27T09:19:17.255Z,44.36
2019-06-27T09:24:12.052Z,43.69
2019-06-27T09:29:06.869Z,43.74
2019-06-27T09:34:06.012Z,43.35
2019-06-27T09:39:00.987Z,42.57
2019-06-27T09:43:55.623Z,41.96
2019-06-27T09:48:50.396Z,42.26
2019-06-27T09:53:45.038Z,41.92
2019-06-27T09:58:39.633Z,42.48
2019-06-27T10:03:34.233Z,41.04
2019-06-27T10:08:28.830Z,40.15
2019-06-27T10:13:23.451Z,39.24
2019-06-27T10:18:18.029Z,39.31
2019-06-27T10:23:13.704Z,39.20
2019-06-27T10:28:08.579Z,39.13
2019-06-27T10:33:03.271Z,38.33
2019-06-27T10:37:58.051Z,38.32
2019-06-27T10:42:52.725Z,37.61
2019-06-27T10:47:48.067Z,36.57
2019-06-27T10:52:42.814Z,35.87
2019-06-27T10:57:37.400Z,34.85
2019-06-27T11:02:31.965Z,37.10
2019-06-27T11:07:26.564Z,36.10
2019-06-27T11:12:21.716Z,35.57
2019-06-27T11:17:16.364Z,35.42
2019-06-27T11:22:11.062Z,35.41
2019-06-27T11:27:05.719Z,36.08
2019-06-27T11:32:04.861Z,35.68
2019-06-27T11:36:59.616Z,35.71
2019-06-27T11:41:54.224Z,36.91
2019-06-27T11:46:48.970Z,37.26
2019-06-27T11:51:43.563Z,35.79
2019-06-27T11:56:38.238Z,34.58
2019-06-27T12:01:32.920Z,34.47
2019-06-27T12:06:27.555Z,33.98
2019-06-27T12:11:22.187Z,33.44
2019-06-27T12:16:16.783Z,33.90
2019-06-27T12:21:11.415Z,33.59
2019-06-27T12:26:06.666Z,35.31
2019-06-27T12:31:10.323Z,35.35
2019-06-27T12:35:58.207Z,35.29
2019-06-27T12:40:52.793Z,34.32
2019-06-27T12:45:47.404Z,33.99
2019-06-27T12:50:42.318Z,33.59
2019-06-27T12:55:37.186Z,33.86
2019-06-27T13:00:31.789Z,33.86
2019-06-27T13:05:32.354Z,33.64
2019-06-27T13:10:35.739Z,33.89
2019-06-27T13:15:29.949Z,34.73
2019-06-27T13:20:25.409Z,34.33
2019-06-27T13:25:21.046Z,35.72
2019-06-27T13:30:16.052Z,36.54
2019-06-27T13:35:11.613Z,37.62
2019-06-27T13:40:08.368Z,35.90
2019-06-27T13:45:03.354Z,35.60
2019-06-27T13:49:57.986Z,36.55
2019-06-27T13:54:52.681Z,38.03
2019-06-27T13:59:47.507Z,38.20
2019-06-27T14:04:56.736Z,38.00
2019-06-27T14:09:52.229Z,37.03
2019-06-27T14:14:36.148Z,37.07
2019-06-27T14:19:30.772Z,37.18
2019-06-27T14:24:25.368Z,36.29
2019-06-27T14:29:19.958Z,36.94
2019-06-27T14:34:14.848Z,37.95
2019-06-27T14:39:10.488Z,38.04
2019-06-27T14:44:05.164Z,37.66
2019-06-27T14:48:59.833Z,38.28
2019-06-27T14:53:54.490Z,38.32
2019-06-27T14:58:49.117Z,39.19
2019-06-27T15:03:43.769Z,39.76
2019-06-27T15:08:38.353Z,38.88
2019-06-27T15:13:33.029Z,39.50
2019-06-27T15:18:27.620Z,39.20
2019-06-27T15:23:22.289Z,41.48
2019-06-27T15:28:16.908Z,41.32
2019-06-27T15:33:11.513Z,40.95
2019-06-27T15:38:06.111Z,40.67
2019-06-27T15:43:03.727Z,40.71
2019-06-27T15:48:04.416Z,41.66
2019-06-27T15:53:05.374Z,41.48
2019-06-27T15:58:10.317Z,41.49
2019-06-27T16:03:10.277Z,42.96
2019-06-27T16:08:05.290Z,42.31
2019-06-27T16:13:02.402Z,41.99
2019-06-27T16:17:56.179Z,41.90
2019-06-27T16:22:50.786Z,41.96
2019-06-27T16:27:45.379Z,42.08
2019-06-27T16:32:39.968Z,42.54
2019-06-27T16:37:34.559Z,42.31
2019-06-27T16:42:29.166Z,42.21
2019-06-27T16:47:23.752Z,42.28
2019-06-27T16:52:18.343Z,42.49
2019-06-27T16:57:12.989Z,42.97
2019-06-27T17:02:08.381Z,43.18
2019-06-27T17:07:02.960Z,43.60
2019-06-27T17:11:57.554Z,42.79
2019-06-27T17:16:52.227Z,43.09
2019-06-27T17:21:46.824Z,43.91
2019-06-27T17:26:41.412Z,44.94
2019-06-27T17:31:36.010Z,44.78
2019-06-27T17:36:30.607Z,45.29
2019-06-27T17:41:25.216Z,45.48
2019-06-27T17:46:19.800Z,45.56
2019-06-27T17:51:14.397Z,45.73
2019-06-27T17:56:08.998Z,45.43
2019-06-27T18:01:03.652Z,45.93
2019-06-27T18:05:58.238Z,45.93
2019-06-27T18:10:52.836Z,46.98
2019-06-27T18:15:47.437Z,47.73
2019-06-27T18:20:42.017Z,48.10
2019-06-27T18:25:36.615Z,48.56
2019-06-27T18:30:31.218Z,48.87
2019-06-27T18:35:25.808Z,49.92
2019-06-27T18:40:22.315Z,49.58
2019-06-27T18:45:17.281Z,50.10
2019-06-27T18:50:12.675Z,50.38
2019-06-27T18:55:07.574Z,50.71
2019-06-27T19:00:02.319Z,51.43
2019-06-27T19:04:57.061Z,52.33
2019-06-27T19:09:51.635Z,52.59
2019-06-27T19:14:46.229Z,53.59
2019-06-27T19:19:42.455Z,53.48
2019-06-27T19:24:54.115Z,53.93
2019-06-27T19:29:48.699Z,54.06
2019-06-27T19:34:43.383Z,54.72
2019-06-27T19:39:38.230Z,55.08
2019-06-27T19:44:32.827Z,55.05
2019-06-27T19:49:27.401Z,54.33
2019-06-27T19:54:22.096Z,55.03
2019-06-27T19:59:17.035Z,55.26
2019-06-27T20:04:11.654Z,55.20
2019-06-27T20:09:06.786Z,55.22
2019-06-27T20:14:02.153Z,55.15
2019-06-27T20:18:56.811Z,55.68
2019-06-27T20:23:51.406Z,55.94
2019-06-27T20:28:46.066Z,56.17
2019-06-27T20:33:40.666Z,56.85
2019-06-27T20:38:35.597Z,57.91
2019-06-27T20:43:30.368Z,58.60
2019-06-27T20:48:25.366Z,59.51
2019-06-27T20:53:19.959Z,60.40
2019-06-27T20:58:14.550Z,60.95
2019-06-27T21:03:09.156Z,60.73
2019-06-27T21:08:03.739Z,60.98
2019-06-27T21:12:58.403Z,61.03
2019-06-27T21:17:53.000Z,61.47
2019-06-27T21:22:47.622Z,60.89
2019-06-27T21:27:42.260Z,60.32
2019-06-27T21:32:36.870Z,60.64
2019-06-27T21:37:31.465Z,59.86
2019-06-27T21:42:26.042Z,60.56
2019-06-27T21:47:20.655Z,60.78
2019-06-27T21:52:15.248Z,60.25
2019-06-27T21:57:09.853Z,59.96
2019-06-27T22:02:04.901Z,59.53
2019-06-27T22:06:59.506Z,59.65
2019-06-27T22:11:54.168Z,59.21
2019-06-27T22:16:48.826Z,58.10
2019-06-27T22:21:43.414Z,58.57
2019-06-27T22:26:38.011Z,57.62
2019-06-27T22:31:32.580Z,56.92
2019-06-27T22:36:27.179Z,56.54
2019-06-27T22:41:39.819Z,56.21
2019-06-27T22:46:52.471Z,55.62
2019-06-27T22:51:58.115Z,55.94
2019-06-27T22:56:52.714Z,55.57
2019-06-27T23:01:47.359Z,55.55
2019-06-27T23:06:41.949Z,55.74
2019-06-27T23:11:36.524Z,56.13
2019-06-27T23:16:31.187Z,56.91
2019-06-27T23:21:25.756Z,57.41
2019-06-27T23:26:20.355Z,56.37
2019-06-27T23:31:15.031Z,54.80
2019-06-27T23:36:09.627Z,55.19
2019-06-27T23:41:04.214Z,53.56
2019-06-27T23:45:58.798Z,51.41
2019-06-27T23:50:53.384Z,52.26
2019-06-27T23:55:47.964Z,49.68
